Speculator, NY (12164)

2:01 AM EST on November 28, 2014 (GMT -0500)
King Of The Frosties | Change Station
CLOSE
Current Station
Personal Weather Station
Location: Speculator, NY
Elevation: 1752 ft
Nearby Weather Stations

Elev 1752 ft 43.50 °N, 74.36 °W | Updated 1 minute ago

Overcast
Overcast
20.5 °F
Feels Like 20 °F
N
0.0
Wind Variable Wind from NNE
Gusts 0.0 mph

Today
High -- | Low -- °F
--% Chance of Precip.
Yesterday
High -- | Low -- °F
Precip. -- in
7:07 AM 4:23 PM
Waxing Crescent, 37% visible
Pressure 30.06 in
Visibility 4.0 miles
Clouds Overcast 2300 ft
Windchill 20 °F
Dew Point 19 °F
Humidity 92%
Rainfall 0.00 in
Snow Depth Not available.
UV 0 out of 12
Pollen .10 out of 12
Air Quality Not available.
Flu Activity Not available.
METAR KGFL 280653Z AUTO 00000KT 4SM -SN BR OVC023 M03/M04 A3004 RMK AO2 SNE02B34 SLP180 P0000 T10281044

More Conditions Fewer Conditions

Pressure 30.06 in
Visibility 4.0 miles
Clouds Overcast 2300 ft
Windchill 20 °F
Dew Point 19 °F
Humidity 92%
Rainfall 0.00 in
Snow Depth Not available.
UV 0 out of 12
Pollen .10 out of 12
Air Quality Not available.
Flu Activity Not available.
METAR KGFL 280653Z AUTO 00000KT 4SM -SN BR OVC023 M03/M04 A3004 RMK AO2 SNE02B34 SLP180 P0000 T10281044

More Conditions Fewer Conditions

10-Day Weather Forecast

Almanac

Astronomy

Nov. 28, 2014 Rise Set
Actual Time
Civil Twilight
Nautical Twilight
Astronomical Twilight
Moon
Length of Visible Light
Length of Day
Tomorrow will be .
, % of the Moon is Illuminated

Today's Extremes

State Highs State Lows

Community

WunderPhotos

Upload Photos

1,774,194 photos uploaded!

WunderBlogs® & News

Nearby

Air Quality

  Air Quality AQ Index Pollutant
Not available.

Snow Depth

Station Depth Elevation

Earthquake Activity

City Distance Mag. Time & Date
Minimum magnitude displayed is 2.5.

Coastal Water Temperatures

Place Temperature

Nearby Weather Stations